createdAt,value
2022-12-09T00:00:13.669Z,8.53
2022-12-09T00:02:40.880Z,9.53
2022-12-09T00:05:08.547Z,10.50
2022-12-09T00:07:36.429Z,9.47
2022-12-09T00:10:05.956Z,10.23
2022-12-09T00:12:33.334Z,11.30
2022-12-09T00:15:00.584Z,9.23
2022-12-09T00:17:27.589Z,8.90
2022-12-09T00:19:54.738Z,8.73
2022-12-09T00:22:21.936Z,8.57
2022-12-09T00:24:48.889Z,10.27
2022-12-09T00:27:15.714Z,9.33
2022-12-09T00:29:42.530Z,10.50
2022-12-09T00:32:09.573Z,10.10
2022-12-09T00:34:36.468Z,10.47
2022-12-09T00:37:03.516Z,9.93
2022-12-09T00:39:30.408Z,10.47
2022-12-09T00:41:57.222Z,10.90
2022-12-09T00:44:24.066Z,9.67
2022-12-09T00:46:50.911Z,9.27
2022-12-09T00:49:17.960Z,8.87
2022-12-09T00:51:45.137Z,8.87
2022-12-09T00:54:12.957Z,9.30
2022-12-09T00:56:39.949Z,9.73
2022-12-09T00:59:06.727Z,8.93
2022-12-09T01:01:33.647Z,10.47
2022-12-09T01:04:02.514Z,10.63
2022-12-09T01:06:29.964Z,10.23
2022-12-09T01:08:56.975Z,10.27
2022-12-09T01:11:28.401Z,10.40
2022-12-09T01:14:00.660Z,10.53
2022-12-09T01:16:31.087Z,10.50
2022-12-09T01:19:01.745Z,10.60
2022-12-09T01:21:29.664Z,10.50
2022-12-09T01:23:56.834Z,10.97
2022-12-09T01:26:23.655Z,10.60
2022-12-09T01:28:52.841Z,11.07
2022-12-09T01:31:24.137Z,10.80
2022-12-09T01:33:51.819Z,9.17
2022-12-09T01:36:24.526Z,9.97
2022-12-09T01:38:51.987Z,9.57
2022-12-09T01:41:21.945Z,9.53
2022-12-09T01:44:21.362Z,9.83
2022-12-09T01:46:48.716Z,9.73
2022-12-09T01:49:34.483Z,10.43
2022-12-09T01:52:20.430Z,9.63
2022-12-09T01:54:50.150Z,9.90
2022-12-09T01:57:17.255Z,10.40
2022-12-09T01:59:46.028Z,10.37
2022-12-09T02:02:17.790Z,10.20
2022-12-09T02:04:49.218Z,10.23
2022-12-09T02:07:19.474Z,8.63
2022-12-09T02:09:47.115Z,8.90
2022-12-09T02:12:37.829Z,9.63
2022-12-09T02:15:21.049Z,10.03
2022-12-09T02:18:03.615Z,10.50
2022-12-09T02:20:51.480Z,9.47
2022-12-09T02:23:36.640Z,9.27
2022-12-09T02:26:44.607Z,9.67
2022-12-09T02:30:13.040Z,10.00
2022-12-09T02:33:05.984Z,10.33
2022-12-09T02:35:50.524Z,9.23
2022-12-09T02:38:23.051Z,9.70
2022-12-09T02:41:12.467Z,10.00
2022-12-09T02:43:49.890Z,9.30
2022-12-09T02:46:21.804Z,9.53
2022-12-09T02:48:55.983Z,9.83
2022-12-09T02:51:26.877Z,10.77
2022-12-09T02:54:03.357Z,10.37
2022-12-09T02:56:31.259Z,10.17
2022-12-09T02:58:58.075Z,9.60
2022-12-09T03:01:51.112Z,10.03
2022-12-09T03:04:24.317Z,9.83
2022-12-09T03:06:54.323Z,10.47
2022-12-09T03:09:29.486Z,9.60
2022-12-09T03:12:04.047Z,8.73
2022-12-09T03:14:41.914Z,10.00
2022-12-09T03:17:23.667Z,10.70
2022-12-09T03:19:59.636Z,9.90
2022-12-09T03:22:33.968Z,10.40
2022-12-09T03:25:12.431Z,10.33
2022-12-09T03:27:50.505Z,9.47
2022-12-09T03:30:18.601Z,9.37
2022-12-09T03:32:47.295Z,10.23
2022-12-09T03:35:32.370Z,10.10
2022-12-09T03:38:03.312Z,9.33
2022-12-09T03:40:33.046Z,10.07
2022-12-09T03:43:17.047Z,9.93
2022-12-09T03:45:44.039Z,10.37
2022-12-09T03:48:12.225Z,10.77
2022-12-09T03:50:54.913Z,10.13
2022-12-09T03:53:43.164Z,10.73
2022-12-09T03:56:21.179Z,11.63
2022-12-09T03:58:53.830Z,12.37
2022-12-09T04:01:24.658Z,10.43
2022-12-09T04:03:56.228Z,12.10
2022-12-09T04:06:23.872Z,13.60
2022-12-09T04:08:50.987Z,13.10
2022-12-09T04:11:17.928Z,13.77
2022-12-09T04:13:44.898Z,14.73
2022-12-09T04:16:11.801Z,13.97
2022-12-09T04:18:39.107Z,15.07
2022-12-09T04:21:13.015Z,13.77
2022-12-09T04:23:43.230Z,14.30
2022-12-09T04:26:17.070Z,14.43
2022-12-09T04:28:44.110Z,14.07
2022-12-09T04:31:13.771Z,14.57
2022-12-09T04:33:41.799Z,15.43
2022-12-09T04:36:13.513Z,15.93
2022-12-09T04:38:41.998Z,15.20
2022-12-09T04:41:09.855Z,15.50
2022-12-09T04:43:37.061Z,15.10
2022-12-09T04:46:10.437Z,16.30
2022-12-09T04:48:38.012Z,14.93
2022-12-09T04:51:05.024Z,15.60
2022-12-09T04:53:31.848Z,15.33
2022-12-09T04:56:01.209Z,14.60
2022-12-09T04:58:28.544Z,14.63
2022-12-09T05:00:56.017Z,14.33
2022-12-09T05:03:23.928Z,14.40
2022-12-09T05:05:51.462Z,16.20
2022-12-09T05:08:18.978Z,14.40
2022-12-09T05:10:50.750Z,13.87
2022-12-09T05:13:18.313Z,14.67
2022-12-09T05:15:45.176Z,15.70
2022-12-09T05:18:12.179Z,13.57
2022-12-09T05:20:41.215Z,14.53
2022-12-09T05:23:09.901Z,16.13
2022-12-09T05:25:37.259Z,14.63
2022-12-09T05:28:04.565Z,12.87
2022-12-09T05:30:31.836Z,14.77
2022-12-09T05:32:59.158Z,13.70
2022-12-09T05:35:26.228Z,15.63
2022-12-09T05:37:53.257Z,14.13
2022-12-09T05:40:20.569Z,13.77
2022-12-09T05:42:47.963Z,13.67
2022-12-09T05:45:15.014Z,13.13
2022-12-09T05:47:42.732Z,13.47
2022-12-09T05:50:12.532Z,12.33
2022-12-09T05:52:40.300Z,12.60
2022-12-09T05:55:09.681Z,13.30
2022-12-09T05:57:37.470Z,14.17
2022-12-09T06:00:08.106Z,13.57
2022-12-09T06:02:35.401Z,13.23
2022-12-09T06:05:03.200Z,12.73
2022-12-09T06:07:30.534Z,13.23
2022-12-09T06:09:58.200Z,13.20
2022-12-09T06:12:25.190Z,13.63
2022-12-09T06:14:52.704Z,13.50
2022-12-09T06:17:20.723Z,12.27
2022-12-09T06:19:47.776Z,14.23
2022-12-09T06:22:15.121Z,14.93
2022-12-09T06:24:42.202Z,15.10
2022-12-09T06:27:09.263Z,16.73
2022-12-09T06:29:36.572Z,13.80
2022-12-09T06:32:04.750Z,14.37
2022-12-09T06:34:32.057Z,19.87
2022-12-09T06:36:59.468Z,15.23
2022-12-09T06:39:26.763Z,14.40
2022-12-09T06:41:53.844Z,13.90
2022-12-09T06:44:23.844Z,13.97
2022-12-09T06:47:32.834Z,13.50
2022-12-09T06:50:06.680Z,13.40
2022-12-09T06:52:34.498Z,15.00
2022-12-09T06:55:02.108Z,13.63
2022-12-09T06:57:29.465Z,15.83
2022-12-09T06:59:56.812Z,16.00
2022-12-09T07:02:23.905Z,14.67
2022-12-09T07:04:55.607Z,13.47
2022-12-09T07:07:23.352Z,15.07
2022-12-09T07:09:50.521Z,15.37
2022-12-09T07:12:18.386Z,15.77
2022-12-09T07:14:45.640Z,15.47
2022-12-09T07:17:20.846Z,15.23
2022-12-09T07:19:48.258Z,14.27
2022-12-09T07:22:15.969Z,12.30
2022-12-09T07:24:43.303Z,12.23
2022-12-09T07:27:19.323Z,12.67
2022-12-09T07:29:47.248Z,15.30
2022-12-09T07:32:15.050Z,16.17
2022-12-09T07:34:42.514Z,16.87
2022-12-09T07:37:09.995Z,19.40
2022-12-09T07:39:37.083Z,20.17
2022-12-09T07:42:05.167Z,18.33
2022-12-09T07:44:32.392Z,18.80
2022-12-09T07:46:59.343Z,20.53
2022-12-09T07:49:26.618Z,18.87
2022-12-09T07:51:53.723Z,18.73
2022-12-09T07:54:21.317Z,18.23
2022-12-09T07:56:48.920Z,18.77
2022-12-09T07:59:16.982Z,18.27
2022-12-09T08:01:45.362Z,19.63
2022-12-09T08:04:13.190Z,15.70
2022-12-09T08:06:40.585Z,14.40
2022-12-09T08:09:13.356Z,15.53
2022-12-09T08:11:40.961Z,15.83
2022-12-09T08:14:12.869Z,13.40
2022-12-09T08:16:42.611Z,15.40
2022-12-09T08:19:10.603Z,16.57
2022-12-09T08:21:38.348Z,16.33
2022-12-09T08:24:07.831Z,16.53
2022-12-09T08:26:37.586Z,18.50
2022-12-09T08:29:10.019Z,16.97
2022-12-09T08:31:40.932Z,15.73
2022-12-09T08:34:09.986Z,14.73
2022-12-09T08:36:37.754Z,14.20
2022-12-09T08:39:05.334Z,15.33
2022-12-09T08:41:37.832Z,15.03
2022-12-09T08:44:08.881Z,14.47
2022-12-09T08:46:39.307Z,14.73
2022-12-09T08:49:07.580Z,15.77
2022-12-09T08:51:35.836Z,14.97
2022-12-09T08:54:04.234Z,17.43
2022-12-09T08:56:32.075Z,15.90
2022-12-09T08:58:59.015Z,16.60
2022-12-09T09:01:32.792Z,18.10
2022-12-09T09:04:08.553Z,16.13
2022-12-09T09:06:38.840Z,14.90
2022-12-09T09:09:09.062Z,15.27
2022-12-09T09:11:37.496Z,15.30
2022-12-09T09:14:07.623Z,14.60
2022-12-09T09:16:38.073Z,15.97
2022-12-09T09:19:06.167Z,15.80
2022-12-09T09:21:34.944Z,18.03
2022-12-09T09:24:03.142Z,15.30
2022-12-09T09:26:30.294Z,16.17
2022-12-09T09:28:57.983Z,18.53
2022-12-09T09:31:26.012Z,21.03
2022-12-09T09:33:54.002Z,16.13
2022-12-09T09:36:24.732Z,17.27
2022-12-09T09:38:55.056Z,16.03
2022-12-09T09:41:34.038Z,14.90
2022-12-09T09:44:04.730Z,13.27
2022-12-09T09:46:45.032Z,15.53
2022-12-09T09:49:37.722Z,15.83
2022-12-09T09:52:16.891Z,15.30
2022-12-09T09:54:44.353Z,15.07
2022-12-09T09:57:40.432Z,17.23
2022-12-09T10:01:08.844Z,17.77
2022-12-09T10:03:39.786Z,16.80
2022-12-09T10:06:29.220Z,18.13
2022-12-09T10:09:16.060Z,16.50
2022-12-09T10:12:01.968Z,18.57
2022-12-09T10:14:47.760Z,19.40
2022-12-09T10:17:41.989Z,20.53
2022-12-09T10:20:28.640Z,22.03
2022-12-09T10:23:20.009Z,19.87
2022-12-09T10:25:56.764Z,20.63
2022-12-09T10:28:31.300Z,20.33
2022-12-09T10:30:58.368Z,21.53
2022-12-09T10:33:40.961Z,19.50
2022-12-09T10:36:25.983Z,19.87
2022-12-09T10:38:55.423Z,19.20
2022-12-09T10:42:13.536Z,21.73
2022-12-09T10:44:41.113Z,19.67
2022-12-09T10:47:29.149Z,20.13
2022-12-09T10:50:01.948Z,20.80
2022-12-09T10:52:37.025Z,19.67
2022-12-09T10:55:07.376Z,20.03
2022-12-09T10:57:34.711Z,19.20
2022-12-09T11:00:34.739Z,18.87
2022-12-09T11:03:03.534Z,18.97
2022-12-09T11:05:34.713Z,18.60
2022-12-09T11:08:02.903Z,18.33
2022-12-09T11:10:31.051Z,19.33
2022-12-09T11:13:08.979Z,19.70
2022-12-09T11:15:49.657Z,18.87
2022-12-09T11:18:33.837Z,18.37
2022-12-09T11:21:05.083Z,19.07
2022-12-09T11:23:34.641Z,19.63
2022-12-09T11:26:22.382Z,17.93
2022-12-09T11:29:13.407Z,16.70
2022-12-09T11:31:42.073Z,15.70
2022-12-09T11:34:26.249Z,16.93
2022-12-09T11:36:58.072Z,19.67
2022-12-09T11:48:59.402Z,13.50
2022-12-09T11:51:40.409Z,13.17
2022-12-09T11:54:31.974Z,15.70
2022-12-09T11:57:00.473Z,15.10
2022-12-09T11:59:42.004Z,14.87
2022-12-09T12:03:02.865Z,17.07
2022-12-09T12:05:41.840Z,15.07
2022-12-09T12:08:28.237Z,15.07
2022-12-09T12:11:10.541Z,15.80
2022-12-09T12:13:51.767Z,15.97
2022-12-09T12:16:39.207Z,15.23
2022-12-09T12:19:40.639Z,15.20
2022-12-09T12:22:55.022Z,16.97
2022-12-09T12:25:40.846Z,15.43
2022-12-09T12:29:07.728Z,15.60
2022-12-09T12:31:46.392Z,15.13
2022-12-09T12:34:47.084Z,15.87
2022-12-09T12:37:30.398Z,16.13
2022-12-09T12:40:26.815Z,16.20
2022-12-09T12:44:18.342Z,15.80
2022-12-09T12:47:07.139Z,16.40
2022-12-09T12:50:14.868Z,16.60
2022-12-09T12:53:06.064Z,16.60
2022-12-09T12:56:00.337Z,15.63
2022-12-09T12:58:40.205Z,17.17
2022-12-09T13:01:25.317Z,16.00
2022-12-09T13:04:13.842Z,15.17
2022-12-09T13:06:51.987Z,15.90
2022-12-09T13:09:33.373Z,14.87
2022-12-09T13:12:46.045Z,13.07
2022-12-09T13:15:17.163Z,15.83
2022-12-09T13:17:48.037Z,13.70
2022-12-09T13:20:46.771Z,14.67
2022-12-09T13:23:19.347Z,15.13
2022-12-09T13:26:15.519Z,15.13
2022-12-09T13:29:23.360Z,15.57
2022-12-09T13:32:34.311Z,14.43
2022-12-09T13:35:37.446Z,14.27
2022-12-09T13:38:04.372Z,13.70
2022-12-09T13:40:38.830Z,14.17
2022-12-09T13:43:21.305Z,12.47
2022-12-09T13:45:51.034Z,14.00
2022-12-09T13:48:17.789Z,12.93
2022-12-09T13:50:56.016Z,12.40
2022-12-09T13:53:50.448Z,8.73
2022-12-09T13:56:21.987Z,7.50
2022-12-09T13:59:07.736Z,6.80
2022-12-09T14:01:49.771Z,5.23
2022-12-09T14:04:29.165Z,6.60
2022-12-09T14:07:13.967Z,6.23
2022-12-09T14:09:52.756Z,6.23
2022-12-09T14:12:25.588Z,6.17
2022-12-09T14:15:01.631Z,13.63
2022-12-09T14:17:31.073Z,6.53
2022-12-09T14:20:21.246Z,5.53
2022-12-09T14:23:06.493Z,6.60
2022-12-09T14:25:35.858Z,6.53
2022-12-09T14:28:24.255Z,8.10
2022-12-09T14:31:03.384Z,14.70
2022-12-09T14:33:41.650Z,8.17
2022-12-09T14:36:14.432Z,7.47
2022-12-09T14:39:24.262Z,6.90
2022-12-09T14:42:08.421Z,7.17
2022-12-09T14:45:21.742Z,10.03
2022-12-09T14:47:48.792Z,8.10
2022-12-09T14:50:23.900Z,6.03
2022-12-09T14:52:54.367Z,7.50
2022-12-09T14:55:25.355Z,7.80
2022-12-09T14:57:55.699Z,8.23
2022-12-09T15:00:29.148Z,7.83
2022-12-09T15:03:30.748Z,7.83
2022-12-09T15:06:02.182Z,7.50
2022-12-09T15:08:37.005Z,8.07
2022-12-09T15:11:34.815Z,10.30
2022-12-09T15:14:27.200Z,11.70
2022-12-09T15:16:57.122Z,9.70
2022-12-09T15:19:59.100Z,11.50
2022-12-09T15:22:28.946Z,9.33
2022-12-09T15:24:55.806Z,10.03
2022-12-09T15:27:25.201Z,10.57
2022-12-09T15:29:53.981Z,9.90
2022-12-09T15:32:30.187Z,9.00
2022-12-09T15:35:21.506Z,10.00
2022-12-09T15:37:52.264Z,10.97
2022-12-09T15:40:22.345Z,9.53
2022-12-09T15:42:55.878Z,10.80
2022-12-09T15:45:27.789Z,11.07
2022-12-09T15:48:15.401Z,10.43
2022-12-09T15:51:07.257Z,11.53
2022-12-09T15:53:44.630Z,10.17
2022-12-09T15:56:20.725Z,10.47
2022-12-09T15:58:56.797Z,10.43
2022-12-09T16:01:34.645Z,10.43
2022-12-09T16:04:04.731Z,9.97
2022-12-09T16:06:37.497Z,11.10
2022-12-09T16:09:14.584Z,10.83
2022-12-09T16:11:48.394Z,9.63
2022-12-09T16:14:18.400Z,9.47
2022-12-09T16:16:48.860Z,9.53
2022-12-09T16:19:30.838Z,9.90
2022-12-09T16:22:32.891Z,13.93
2022-12-09T16:25:20.099Z,12.00
2022-12-09T16:27:50.266Z,11.90
2022-12-09T16:30:24.517Z,13.13
2022-12-09T16:32:58.220Z,14.10
2022-12-09T16:35:44.973Z,12.73
2022-12-09T16:38:11.680Z,10.80
2022-12-09T16:40:44.745Z,11.27
2022-12-09T16:43:20.915Z,11.53
2022-12-09T16:45:53.100Z,12.80
2022-12-09T16:48:21.954Z,13.87
2022-12-09T16:51:05.922Z,11.87
2022-12-09T16:53:39.875Z,12.97
2022-12-09T16:56:16.843Z,12.93
2022-12-09T16:58:43.804Z,13.70
2022-12-09T17:01:17.768Z,13.63
2022-12-09T17:03:49.830Z,14.10
2022-12-09T17:06:20.352Z,14.13
2022-12-09T17:08:47.464Z,16.03
2022-12-09T17:11:16.845Z,16.37
2022-12-09T17:13:43.674Z,20.27
2022-12-09T17:16:10.761Z,17.90
2022-12-09T17:18:37.671Z,15.63
2022-12-09T17:21:12.525Z,16.40
2022-12-09T17:23:40.984Z,20.37
2022-12-09T17:26:13.422Z,18.63
2022-12-09T17:28:42.134Z,16.10
2022-12-09T17:31:18.096Z,30.93
2022-12-09T17:33:45.402Z,13.87
2022-12-09T17:36:14.839Z,16.93
2022-12-09T17:38:42.516Z,25.03
2022-12-09T17:41:14.769Z,29.63
2022-12-09T17:43:43.019Z,30.83
2022-12-09T17:46:11.379Z,22.10
2022-12-09T17:48:40.018Z,21.30
2022-12-09T17:51:15.215Z,17.83
2022-12-09T17:53:43.484Z,18.70
2022-12-09T17:56:17.178Z,17.27
2022-12-09T17:58:44.318Z,19.80
2022-12-09T18:01:19.483Z,19.73
2022-12-09T18:03:56.059Z,21.47
2022-12-09T18:06:27.934Z,20.83
2022-12-09T18:08:54.896Z,19.50
2022-12-09T18:11:22.489Z,15.73
2022-12-09T18:13:49.604Z,14.07
2022-12-09T18:16:17.806Z,12.93
2022-12-09T18:18:45.592Z,14.27
2022-12-09T18:21:16.008Z,13.87
2022-12-09T18:23:43.757Z,13.20
2022-12-09T18:26:15.156Z,11.87
2022-12-09T18:28:42.758Z,8.00
2022-12-09T18:31:13.270Z,11.77
2022-12-09T18:33:40.831Z,11.53
2022-12-09T18:36:16.463Z,11.50
2022-12-09T18:38:43.904Z,10.93
2022-12-09T18:41:17.502Z,11.37
2022-12-09T18:43:46.987Z,10.13
2022-12-09T18:46:23.849Z,11.67
2022-12-09T18:48:57.790Z,10.37
2022-12-09T18:51:25.502Z,10.33
2022-12-09T18:53:52.738Z,9.83
2022-12-09T18:56:19.655Z,11.20
2022-12-09T18:59:06.004Z,11.77
2022-12-09T19:01:38.921Z,11.17
2022-12-09T19:04:08.699Z,12.90
2022-12-09T19:06:39.663Z,13.10
2022-12-09T19:09:26.005Z,12.73
2022-12-09T19:11:53.898Z,13.67
2022-12-09T19:14:22.903Z,13.17
2022-12-09T19:16:51.869Z,13.63
2022-12-09T19:19:25.580Z,15.30
2022-12-09T19:21:53.533Z,14.83
2022-12-09T19:24:28.575Z,15.87
2022-12-09T19:26:57.756Z,15.53
2022-12-09T19:29:26.523Z,15.60
2022-12-09T19:31:54.977Z,15.43
2022-12-09T19:34:24.608Z,15.87
2022-12-09T19:36:54.800Z,16.10
2022-12-09T19:39:24.861Z,14.40
2022-12-09T19:41:52.867Z,14.20
2022-12-09T19:44:44.408Z,14.07
2022-12-09T19:47:07.703Z,14.03
2022-12-09T19:49:34.724Z,13.17
2022-12-09T19:52:05.917Z,13.33
2022-12-09T19:54:32.746Z,13.00
2022-12-09T19:56:59.638Z,14.87
2022-12-09T19:59:27.688Z,14.77
2022-12-09T20:01:55.066Z,15.27
2022-12-09T20:04:48.200Z,15.53
2022-12-09T20:07:13.254Z,14.90
2022-12-09T20:09:40.129Z,15.60
2022-12-09T20:12:07.040Z,16.93
2022-12-09T20:14:33.987Z,16.57
2022-12-09T20:17:00.816Z,18.00
2022-12-09T20:19:27.937Z,17.03
2022-12-09T20:21:54.766Z,18.27
2022-12-09T20:24:21.613Z,20.27
2022-12-09T20:26:48.452Z,18.77
2022-12-09T20:29:15.265Z,20.23
2022-12-09T20:31:43.061Z,20.57
2022-12-09T20:34:16.338Z,22.77
2022-12-09T20:36:45.269Z,21.47
2022-12-09T20:39:19.965Z,15.67
2022-12-09T20:41:48.715Z,13.83
2022-12-09T20:44:17.784Z,12.53
2022-12-09T20:46:49.440Z,12.10
2022-12-09T20:49:17.381Z,23.20
2022-12-09T20:51:45.383Z,20.00
2022-12-09T20:54:13.452Z,21.03
2022-12-09T20:56:40.921Z,22.43
2022-12-09T20:59:09.964Z,24.80
2022-12-09T21:01:37.941Z,24.97
2022-12-09T21:04:07.167Z,21.80
2022-12-09T21:06:38.092Z,16.67
2022-12-09T21:09:10.429Z,16.90
2022-12-09T21:11:37.821Z,18.37
2022-12-09T21:14:06.842Z,18.73
2022-12-09T21:16:39.251Z,18.90
2022-12-09T21:19:10.393Z,19.63
2022-12-09T21:21:41.182Z,20.63
2022-12-09T21:24:11.948Z,21.90
2022-12-09T21:26:40.033Z,26.33
2022-12-09T21:29:08.468Z,27.30
2022-12-09T21:31:38.487Z,26.43
2022-12-09T21:34:07.200Z,25.07
2022-12-09T21:36:38.802Z,20.37
2022-12-09T21:39:07.066Z,14.60
2022-12-09T21:41:36.315Z,13.77
2022-12-09T21:44:05.033Z,19.83
2022-12-09T21:46:35.983Z,17.33
2022-12-09T21:49:06.093Z,14.87
2022-12-09T21:51:35.228Z,14.03
2022-12-09T21:54:02.984Z,13.67
2022-12-09T21:56:33.358Z,12.93
2022-12-09T21:59:00.858Z,15.87
2022-12-09T22:01:34.387Z,15.20
2022-12-09T22:04:02.828Z,16.67
2022-12-09T22:06:30.436Z,14.40
2022-12-09T22:09:02.227Z,13.80
2022-12-09T22:11:33.404Z,12.83
2022-12-09T22:14:01.480Z,15.53
2022-12-09T22:16:33.673Z,14.57
2022-12-09T22:19:02.891Z,15.70
2022-12-09T22:21:33.531Z,14.70
2022-12-09T22:24:04.094Z,14.67
2022-12-09T22:26:31.865Z,15.40
2022-12-09T22:29:01.876Z,16.10
2022-12-09T22:31:36.665Z,16.07
2022-12-09T22:34:23.711Z,16.40
2022-12-09T22:36:50.506Z,15.97
2022-12-09T22:39:21.649Z,17.37
2022-12-09T22:41:48.699Z,17.33
2022-12-09T22:44:18.946Z,16.87
2022-12-09T22:46:46.705Z,17.10
2022-12-09T22:49:15.746Z,17.20
2022-12-09T22:51:43.984Z,18.33
2022-12-09T22:54:11.555Z,19.20
2022-12-09T22:56:41.983Z,19.43
2022-12-09T22:59:09.991Z,18.00
2022-12-09T23:01:38.395Z,18.77
2022-12-09T23:04:07.910Z,20.00
2022-12-09T23:06:37.501Z,19.10
2022-12-09T23:09:10.771Z,19.90
2022-12-09T23:11:37.644Z,19.00
2022-12-09T23:14:04.968Z,20.73
2022-12-09T23:16:31.934Z,21.10
2022-12-09T23:18:59.492Z,17.97
2022-12-09T23:21:33.665Z,18.43
2022-12-09T23:24:08.126Z,20.87
2022-12-09T23:26:37.863Z,18.87
2022-12-09T23:29:07.471Z,18.80
2022-12-09T23:31:37.689Z,18.27
2022-12-09T23:34:06.758Z,17.63
2022-12-09T23:36:39.261Z,18.00
2022-12-09T23:39:11.043Z,17.60
2022-12-09T23:41:42.843Z,18.07
2022-12-09T23:44:13.674Z,17.07
2022-12-09T23:46:40.758Z,16.87
2022-12-09T23:49:08.667Z,18.00
2022-12-09T23:51:39.732Z,18.30
2022-12-09T23:54:08.732Z,16.80
2022-12-09T23:56:39.317Z,18.47
2022-12-09T23:59:10.872Z,20.00
